Time;durP1;ratioP1;P1;durP2;ratioP2;P2;SDS_P1;SDS_P2;PMS_P1;PMS_P2;Temp;Humidity;BMP_temperature;BMP_pressure;BME280_temperature;BME280_humidity;BME280_pressure;Samples;Min_cycle;Max_cycle;Signal;HPM_P1;HPM_P2
2024/01/21 00:00:28;;;;;;;1.70;1.50;;;;;;;;;;4934312;28;20307;-76
2024/01/21 00:02:54;;;;;;;2.27;1.70;;;;;;;;;;4953048;28;20169;-76
2024/01/21 00:05:19;;;;;;;2.10;1.77;;;;;;;;;;4935115;29;20181;-75
2024/01/21 00:07:44;;;;;;;1.90;1.70;;;;;;;;;;4933663;29;20181;-76
2024/01/21 00:10:09;;;;;;;1.63;1.53;;;;;;;;;;4936336;29;20221;-75
2024/01/21 00:12:35;;;;;;;1.87;1.60;;;;;;;;;;4944380;28;20184;-76
2024/01/21 00:15:01;;;;;;;3.70;2.10;;;;;;;;;;4951246;28;20248;-75
2024/01/21 00:17:26;;;;;;;2.13;1.93;;;;;;;;;;4969588;28;20212;-75
2024/01/21 00:19:51;;;;;;;1.93;1.73;;;;;;;;;;4951935;28;20200;-75
2024/01/21 00:22:16;;;;;;;1.90;1.53;;;;;;;;;;4960566;28;20219;-77
2024/01/21 00:24:41;;;;;;;4.40;2.03;;;;;;;;;;4954504;28;20203;-75
2024/01/21 00:27:07;;;;;;;1.53;1.43;;;;;;;;;;4972618;28;20227;-75
2024/01/21 00:29:32;;;;;;;2.30;1.53;;;;;;;;;;4970708;28;20227;-75
2024/01/21 00:31:57;;;;;;;1.70;1.60;;;;;;;;;;4955843;28;20188;-75
2024/01/21 00:34:22;;;;;;;1.93;1.70;;;;;;;;;;4955186;28;20220;-75
2024/01/21 00:36:48;;;;;;;2.73;1.90;;;;;;;;;;4970881;28;20234;-75
2024/01/21 00:39:13;;;;;;;2.87;2.40;;;;;;;;;;4971598;28;20221;-76
2024/01/21 00:41:38;;;;;;;2.60;2.17;;;;;;;;;;4954558;28;20189;-75
2024/01/21 00:44:03;;;;;;;2.37;2.10;;;;;;;;;;4953797;28;20184;-75
2024/01/21 00:46:29;;;;;;;2.27;2.03;;;;;;;;;;4970131;28;20196;-75
2024/01/21 00:48:55;;;;;;;2.70;2.00;;;;;;;;;;4954142;28;20208;-75
2024/01/21 00:51:21;;;;;;;2.57;2.00;;;;;;;;;;4955343;28;20181;-76
2024/01/21 00:53:46;;;;;;;2.90;1.90;;;;;;;;;;4959368;28;21165;-75
2024/01/21 00:56:11;;;;;;;1.93;1.70;;;;;;;;;;4974568;28;20267;-74
2024/01/21 00:58:36;;;;;;;4.07;2.10;;;;;;;;;;4960271;28;20203;-75
2024/01/21 01:01:01;;;;;;;3.40;1.80;;;;;;;;;;4958436;28;20200;-75
2024/01/21 01:03:26;;;;;;;2.33;2.13;;;;;;;;;;4961025;28;20318;-75
2024/01/21 01:05:52;;;;;;;2.33;1.90;;;;;;;;;;4974547;28;20192;-74
2024/01/21 01:08:17;;;;;;;3.13;1.83;;;;;;;;;;4954447;28;20177;-75
2024/01/21 01:10:43;;;;;;;1.80;1.60;;;;;;;;;;4955705;28;20207;-75
2024/01/21 01:13:08;;;;;;;2.17;1.63;;;;;;;;;;4958322;28;20216;-75
2024/01/21 01:15:33;;;;;;;1.70;1.53;;;;;;;;;;4973525;28;20229;-75
2024/01/21 01:17:58;;;;;;;2.03;1.70;;;;;;;;;;4950325;28;20196;-75
2024/01/21 01:20:24;;;;;;;1.50;1.27;;;;;;;;;;4957685;28;20240;-76
2024/01/21 01:22:49;;;;;;;1.80;1.63;;;;;;;;;;4954243;28;20210;-74
2024/01/21 01:25:14;;;;;;;1.73;1.63;;;;;;;;;;4958201;28;20204;-75
2024/01/21 01:27:40;;;;;;;2.57;1.77;;;;;;;;;;4956187;28;20231;-76
2024/01/21 01:30:06;;;;;;;1.87;1.77;;;;;;;;;;4957074;28;20181;-75
2024/01/21 01:32:31;;;;;;;1.30;1.20;;;;;;;;;;4971052;28;20185;-75
2024/01/21 01:34:56;;;;;;;1.93;1.73;;;;;;;;;;4957448;28;20403;-76
2024/01/21 01:37:22;;;;;;;1.53;1.30;;;;;;;;;;4954406;28;20176;-75
2024/01/21 01:39:47;;;;;;;1.97;1.53;;;;;;;;;;4955958;28;20211;-76
2024/01/21 01:42:12;;;;;;;1.53;1.43;;;;;;;;;;4973374;28;20256;-76
2024/01/21 01:44:40;;;;;;;1.60;1.40;;;;;;;;;;4948672;28;20180;-75
2024/01/21 01:47:06;;;;;;;1.70;1.43;;;;;;;;;;4959218;28;20236;-75
2024/01/21 01:49:31;;;;;;;2.00;1.47;;;;;;;;;;4957648;28;20181;-74
2024/01/21 01:51:57;;;;;;;3.17;1.50;;;;;;;;;;4955774;28;20193;-75
2024/01/21 01:54:25;;;;;;;1.23;1.13;;;;;;;;;;4958889;28;20250;-77
2024/01/21 01:56:51;;;;;;;1.40;1.30;;;;;;;;;;4946109;28;20173;-75
2024/01/21 01:59:18;;;;;;;2.27;1.00;;;;;;;;;;4954856;28;20428;-75
2024/01/21 02:01:43;;;;;;;2.17;1.30;;;;;;;;;;4958205;28;20184;-75
2024/01/21 02:04:09;;;;;;;1.43;1.20;;;;;;;;;;4957268;28;20403;-75
2024/01/21 02:06:34;;;;;;;1.17;1.10;;;;;;;;;;4953689;28;20180;-75
2024/01/21 02:08:59;;;;;;;1.47;1.30;;;;;;;;;;4951752;28;20181;-75
2024/01/21 02:11:24;;;;;;;1.90;1.07;;;;;;;;;;4969991;28;20268;-76
2024/01/21 02:13:50;;;;;;;1.23;1.13;;;;;;;;;;4975490;28;20267;-75
2024/01/21 02:16:15;;;;;;;1.50;1.40;;;;;;;;;;4975595;28;20222;-76
2024/01/21 02:18:42;;;;;;;1.10;0.90;;;;;;;;;;4956775;28;20185;-75
2024/01/21 02:21:07;;;;;;;1.37;1.10;;;;;;;;;;4955109;28;20213;-75
2024/01/21 02:23:33;;;;;;;2.07;1.10;;;;;;;;;;4955304;28;20185;-75
2024/01/21 02:25:58;;;;;;;1.20;1.03;;;;;;;;;;4957694;28;20177;-75
2024/01/21 02:28:23;;;;;;;1.40;0.97;;;;;;;;;;4969000;28;20220;-76
2024/01/21 02:30:48;;;;;;;0.80;0.80;;;;;;;;;;4979748;28;20203;-76
2024/01/21 02:33:13;;;;;;;1.37;1.13;;;;;;;;;;4954864;28;20220;-76
2024/01/21 02:35:39;;;;;;;1.10;1.00;;;;;;;;;;4956508;28;20248;-75
2024/01/21 02:38:04;;;;;;;1.17;1.07;;;;;;;;;;4973728;28;20543;-75
2024/01/21 02:40:29;;;;;;;0.97;0.97;;;;;;;;;;4971898;28;20327;-75
2024/01/21 02:42:55;;;;;;;4.80;1.10;;;;;;;;;;4974796;28;20227;-75
2024/01/21 02:45:20;;;;;;;1.27;1.00;;;;;;;;;;4961804;28;20177;-76
2024/01/21 02:47:45;;;;;;;1.53;1.30;;;;;;;;;;4961138;28;20191;-75
2024/01/21 02:50:10;;;;;;;1.20;1.10;;;;;;;;;;4953597;28;20480;-76
2024/01/21 02:52:35;;;;;;;2.10;1.60;;;;;;;;;;4962369;28;20371;-76
2024/01/21 02:55:01;;;;;;;2.07;1.87;;;;;;;;;;4955529;28;20185;-75
2024/01/21 02:57:26;;;;;;;1.30;1.17;;;;;;;;;;4972383;28;20183;-75
2024/01/21 02:59:51;;;;;;;1.30;1.20;;;;;;;;;;4972901;28;20280;-75
2024/01/21 03:02:16;;;;;;;1.13;1.03;;;;;;;;;;4956553;28;20183;-75
2024/01/21 03:04:41;;;;;;;1.53;1.20;;;;;;;;;;4955152;28;20181;-75
2024/01/21 03:07:06;;;;;;;1.90;1.40;;;;;;;;;;4972508;28;20429;-76
2024/01/21 03:09:32;;;;;;;2.07;1.33;;;;;;;;;;4951017;28;20181;-75
2024/01/21 03:11:57;;;;;;;1.60;1.20;;;;;;;;;;4955016;28;20216;-75
2024/01/21 03:14:22;;;;;;;1.30;1.13;;;;;;;;;;4952129;28;20228;-76
2024/01/21 03:16:47;;;;;;;1.03;0.97;;;;;;;;;;4934871;28;20185;-74
2024/01/21 03:19:13;;;;;;;0.90;0.90;;;;;;;;;;4936356;29;20205;-75
2024/01/21 03:21:38;;;;;;;1.37;1.27;;;;;;;;;;4939063;28;20188;-75
2024/01/21 03:24:04;;;;;;;1.43;1.33;;;;;;;;;;4936852;29;20201;-75
2024/01/21 03:26:30;;;;;;;1.33;1.23;;;;;;;;;;4954237;28;20185;-74
2024/01/21 03:28:56;;;;;;;1.40;1.30;;;;;;;;;;4940241;29;20240;-75
2024/01/21 03:31:22;;;;;;;1.50;1.40;;;;;;;;;;4952404;28;20224;-75
2024/01/21 03:33:47;;;;;;;1.40;1.23;;;;;;;;;;4937982;28;20186;-76
2024/01/21 03:36:12;;;;;;;1.57;1.10;;;;;;;;;;4935800;29;20480;-75
2024/01/21 03:38:39;;;;;;;1.77;1.47;;;;;;;;;;4935495;28;20208;-75
2024/01/21 03:41:04;;;;;;;1.30;0.87;;;;;;;;;;4936678;29;20213;-75
2024/01/21 03:43:29;;;;;;;1.43;1.27;;;;;;;;;;4936625;28;20268;-75
2024/01/21 03:45:54;;;;;;;1.30;1.20;;;;;;;;;;4929727;29;20269;-75
2024/01/21 03:48:19;;;;;;;1.50;1.30;;;;;;;;;;4935791;28;20181;-75
2024/01/21 03:50:45;;;;;;;1.37;1.27;;;;;;;;;;4955135;28;20181;-76
2024/01/21 03:53:10;;;;;;;1.30;1.20;;;;;;;;;;4953055;28;20184;-75
2024/01/21 03:55:35;;;;;;;2.10;1.30;;;;;;;;;;4951294;28;20181;-75
2024/01/21 03:58:01;;;;;;;1.40;1.30;;;;;;;;;;4941538;29;20185;-76
2024/01/21 04:00:26;;;;;;;2.23;1.50;;;;;;;;;;4935846;28;20236;-75
2024/01/21 04:02:51;;;;;;;1.43;1.33;;;;;;;;;;4936852;28;20178;-75
2024/01/21 04:05:16;;;;;;;1.50;1.40;;;;;;;;;;4939327;29;20240;-75
2024/01/21 04:07:42;;;;;;;1.73;1.63;;;;;;;;;;4940816;28;20181;-74
2024/01/21 04:10:07;;;;;;;1.50;1.40;;;;;;;;;;4956037;28;20172;-76
2024/01/21 04:12:33;;;;;;;1.43;1.30;;;;;;;;;;4933013;28;20181;-76
2024/01/21 04:14:58;;;;;;;1.93;1.73;;;;;;;;;;4962500;28;20274;-75
2024/01/21 04:17:23;;;;;;;1.73;1.43;;;;;;;;;;4965903;28;20220;-76
2024/01/21 04:19:48;;;;;;;1.60;1.40;;;;;;;;;;4967596;28;20740;-75
2024/01/21 04:22:14;;;;;;;1.77;1.50;;;;;;;;;;4971231;28;20172;-75
2024/01/21 04:24:39;;;;;;;1.60;1.50;;;;;;;;;;4953446;28;20196;-75
2024/01/21 04:27:04;;;;;;;1.70;1.50;;;;;;;;;;4953926;28;20173;-76
2024/01/21 04:29:29;;;;;;;1.50;1.40;;;;;;;;;;4966099;28;20185;-76
2024/01/21 04:31:55;;;;;;;1.90;1.80;;;;;;;;;;4954329;28;20216;-76
2024/01/21 04:34:20;;;;;;;2.13;1.50;;;;;;;;;;4955571;28;20252;-75
2024/01/21 04:36:45;;;;;;;1.60;1.47;;;;;;;;;;4953828;28;20188;-75
2024/01/21 04:39:11;;;;;;;1.60;1.23;;;;;;;;;;4955419;28;20187;-75
2024/01/21 04:41:36;;;;;;;1.83;1.73;;;;;;;;;;4951935;28;20257;-75
2024/01/21 04:44:01;;;;;;;5.53;3.87;;;;;;;;;;4954664;28;20197;-75
2024/01/21 04:46:26;;;;;;;5.13;3.70;;;;;;;;;;4974857;28;20220;-75
2024/01/21 04:48:52;;;;;;;1.83;1.63;;;;;;;;;;4958999;28;20172;-76
2024/01/21 04:51:17;;;;;;;3.73;1.73;;;;;;;;;;4956291;28;20185;-75
2024/01/21 04:53:42;;;;;;;1.63;1.17;;;;;;;;;;4956542;28;20331;-75
2024/01/21 04:56:14;;;;;;;2.17;1.77;;;;;;;;;;4958520;28;20263;-75
2024/01/21 04:58:39;;;;;;;1.87;1.77;;;;;;;;;;4969921;28;20216;-75
2024/01/21 05:01:05;;;;;;;2.50;1.63;;;;;;;;;;4957691;28;20278;-75
2024/01/21 05:03:30;;;;;;;1.93;1.57;;;;;;;;;;4964734;28;20177;-76
2024/01/21 05:05:57;;;;;;;1.27;1.13;;;;;;;;;;4950981;28;20181;-75
2024/01/21 05:08:22;;;;;;;1.70;1.60;;;;;;;;;;4969589;28;20172;-76
2024/01/21 05:10:47;;;;;;;1.77;1.50;;;;;;;;;;4977756;28;20239;-75
2024/01/21 05:13:12;;;;;;;1.70;1.33;;;;;;;;;;4968263;28;20183;-76
2024/01/21 05:15:38;;;;;;;1.77;1.43;;;;;;;;;;4952824;28;20258;-75
2024/01/21 05:18:04;;;;;;;1.30;1.20;;;;;;;;;;4957946;28;20192;-75
2024/01/21 05:20:29;;;;;;;1.57;1.37;;;;;;;;;;4958525;28;20220;-75
2024/01/21 05:22:54;;;;;;;1.40;1.30;;;;;;;;;;4949884;28;20188;-76
2024/01/21 05:25:20;;;;;;;1.40;1.30;;;;;;;;;;4954057;28;20195;-75
2024/01/21 05:27:45;;;;;;;1.50;1.10;;;;;;;;;;4954790;28;20279;-75
2024/01/21 05:30:12;;;;;;;1.50;1.27;;;;;;;;;;4947292;28;20221;-76
2024/01/21 05:32:37;;;;;;;1.97;1.50;;;;;;;;;;4969163;28;20195;-76
2024/01/21 05:35:02;;;;;;;1.53;1.40;;;;;;;;;;4950984;28;20280;-76
2024/01/21 05:37:27;;;;;;;3.73;1.50;;;;;;;;;;4950647;28;20189;-75
2024/01/21 05:39:53;;;;;;;1.53;1.33;;;;;;;;;;4954194;28;20192;-76
2024/01/21 05:42:18;;;;;;;1.60;1.17;;;;;;;;;;4977171;28;20175;-75
2024/01/21 05:44:43;;;;;;;1.50;1.27;;;;;;;;;;4956391;28;20183;-76
2024/01/21 05:47:08;;;;;;;1.90;1.37;;;;;;;;;;4957466;28;20173;-75
2024/01/21 05:49:33;;;;;;;1.00;0.90;;;;;;;;;;4958004;28;20193;-75
2024/01/21 05:51:59;;;;;;;1.70;1.30;;;;;;;;;;4956475;28;20184;-75
2024/01/21 05:54:27;;;;;;;1.53;1.43;;;;;;;;;;4973441;28;20260;-75
2024/01/21 05:56:52;;;;;;;1.27;1.17;;;;;;;;;;4975410;28;20185;-77
2024/01/21 05:59:19;;;;;;;0.90;0.90;;;;;;;;;;4979118;28;20183;-75
2024/01/21 06:01:47;;;;;;;1.20;1.10;;;;;;;;;;4957568;28;20176;-76
2024/01/21 06:04:12;;;;;;;1.77;1.23;;;;;;;;;;4957425;28;20241;-75
2024/01/21 06:06:37;;;;;;;1.80;1.47;;;;;;;;;;4952059;28;20276;-75
2024/01/21 06:09:02;;;;;;;1.07;1.07;;;;;;;;;;4958881;28;20181;-75
2024/01/21 06:11:28;;;;;;;3.30;2.00;;;;;;;;;;4948693;28;20180;-75
2024/01/21 06:13:54;;;;;;;1.50;1.20;;;;;;;;;;4976292;28;20183;-76
2024/01/21 06:16:19;;;;;;;11.30;8.00;;;;;;;;;;4960178;28;20468;-75
2024/01/21 06:18:44;;;;;;;26.87;13.87;;;;;;;;;;4975476;28;20188;-75
2024/01/21 06:21:09;;;;;;;17.93;12.03;;;;;;;;;;4959930;28;20196;-75
2024/01/21 06:23:35;;;;;;;3.13;2.60;;;;;;;;;;4956739;28;20184;-75
2024/01/21 06:26:00;;;;;;;2.90;2.57;;;;;;;;;;4954419;28;20203;-76
2024/01/21 06:28:25;;;;;;;6.67;3.27;;;;;;;;;;4951626;28;20185;-75
2024/01/21 06:30:50;;;;;;;6.30;3.10;;;;;;;;;;4977004;28;20185;-75
2024/01/21 06:33:15;;;;;;;5.20;3.10;;;;;;;;;;4955872;28;20247;-75
2024/01/21 06:35:41;;;;;;;6.43;4.87;;;;;;;;;;4972111;28;20188;-75
2024/01/21 06:38:06;;;;;;;4.80;3.67;;;;;;;;;;4953071;28;20185;-76
2024/01/21 06:40:31;;;;;;;4.63;3.23;;;;;;;;;;4950640;28;20196;-75
2024/01/21 06:42:57;;;;;;;4.07;3.43;;;;;;;;;;4956743;28;20187;-75
2024/01/21 06:45:23;;;;;;;5.03;3.80;;;;;;;;;;4956395;28;20184;-76
2024/01/21 06:47:48;;;;;;;3.87;3.20;;;;;;;;;;4955098;28;20176;-75
2024/01/21 06:50:14;;;;;;;4.47;3.93;;;;;;;;;;4952422;28;20184;-77
2024/01/21 06:52:39;;;;;;;8.10;4.57;;;;;;;;;;4971194;28;20185;-75
2024/01/21 06:55:04;;;;;;;7.20;5.10;;;;;;;;;;4958403;28;20231;-76
2024/01/21 06:57:30;;;;;;;6.57;4.13;;;;;;;;;;4958005;28;20215;-76
2024/01/21 06:59:55;;;;;;;4.77;3.97;;;;;;;;;;4957878;28;20196;-75
2024/01/21 07:02:20;;;;;;;5.10;4.17;;;;;;;;;;4971767;28;20264;-75
2024/01/21 07:04:45;;;;;;;3.60;3.10;;;;;;;;;;4956656;28;20173;-75
2024/01/21 07:07:11;;;;;;;3.40;2.73;;;;;;;;;;4960644;28;20216;-75
2024/01/21 07:09:39;;;;;;;2.93;2.50;;;;;;;;;;4957709;28;20181;-76
2024/01/21 07:12:04;;;;;;;2.83;2.10;;;;;;;;;;4955109;28;20177;-75
2024/01/21 07:14:34;;;;;;;2.63;1.73;;;;;;;;;;4956289;28;20204;-75
2024/01/21 07:16:59;;;;;;;2.27;1.87;;;;;;;;;;4962392;28;20177;-75
2024/01/21 07:19:24;;;;;;;2.00;1.80;;;;;;;;;;4953938;28;20263;-76
2024/01/21 07:21:50;;;;;;;2.13;1.93;;;;;;;;;;4954288;28;20184;-76
2024/01/21 07:24:16;;;;;;;2.27;2.07;;;;;;;;;;4969786;28;20181;-75
2024/01/21 07:26:41;;;;;;;2.07;1.53;;;;;;;;;;4954244;28;20271;-76
2024/01/21 07:29:06;;;;;;;2.33;2.13;;;;;;;;;;4970917;28;20183;-75
2024/01/21 07:31:32;;;;;;;1.80;1.60;;;;;;;;;;4954960;28;20317;-75
2024/01/21 07:33:57;;;;;;;1.63;1.40;;;;;;;;;;4952827;28;20187;-75
2024/01/21 07:36:22;;;;;;;2.43;2.23;;;;;;;;;;4954361;28;20187;-76
2024/01/21 07:38:47;;;;;;;2.53;1.67;;;;;;;;;;4955288;28;20200;-75
2024/01/21 07:41:13;;;;;;;3.83;1.80;;;;;;;;;;4954075;28;20221;-75
2024/01/21 07:43:38;;;;;;;1.83;1.50;;;;;;;;;;4954326;28;20180;-75
2024/01/21 07:46:05;;;;;;;1.70;1.60;;;;;;;;;;4957886;28;20177;-75
2024/01/21 07:48:30;;;;;;;1.63;1.40;;;;;;;;;;4954741;28;20187;-75
2024/01/21 07:50:55;;;;;;;1.73;1.60;;;;;;;;;;4968465;28;20251;-75
2024/01/21 07:53:21;;;;;;;1.90;1.53;;;;;;;;;;4948901;29;20196;-75
2024/01/21 07:55:46;;;;;;;9.77;1.97;;;;;;;;;;4956932;28;20219;-75
2024/01/21 07:58:15;;;;;;;1.63;1.53;;;;;;;;;;4971792;28;20219;-75
2024/01/21 08:00:40;;;;;;;2.23;1.43;;;;;;;;;;4955408;28;20211;-75
2024/01/21 08:03:05;;;;;;;4.00;2.37;;;;;;;;;;4971999;28;20177;-76
2024/01/21 08:05:33;;;;;;;1.70;1.60;;;;;;;;;;4972546;28;20188;-75
2024/01/21 08:07:58;;;;;;;1.90;1.43;;;;;;;;;;4968380;28;20363;-75
2024/01/21 08:10:24;;;;;;;2.17;1.70;;;;;;;;;;4973232;28;20271;-75
2024/01/21 08:12:49;;;;;;;1.67;1.27;;;;;;;;;;4970709;28;20223;-75
2024/01/21 08:15:14;;;;;;;3.00;1.70;;;;;;;;;;4949790;28;22110;-75
2024/01/21 08:17:39;;;;;;;2.80;1.57;;;;;;;;;;4950338;28;20247;-75
2024/01/21 08:20:05;;;;;;;12.50;5.47;;;;;;;;;;4971271;28;20213;-75
2024/01/21 08:22:30;;;;;;;2.80;2.27;;;;;;;;;;4947423;28;20215;-75
2024/01/21 08:24:56;;;;;;;2.77;1.73;;;;;;;;;;4969577;28;20188;-76
2024/01/21 08:27:21;;;;;;;2.43;1.97;;;;;;;;;;4973041;28;20173;-75
2024/01/21 08:29:46;;;;;;;2.97;1.60;;;;;;;;;;4953542;28;20177;-76
2024/01/21 08:32:12;;;;;;;4.67;2.20;;;;;;;;;;4953410;28;20231;-76
2024/01/21 08:34:38;;;;;;;2.20;2.00;;;;;;;;;;4952436;28;20184;-75
2024/01/21 08:37:03;;;;;;;5.47;3.00;;;;;;;;;;4951272;28;20177;-76
2024/01/21 08:39:29;;;;;;;14.63;7.83;;;;;;;;;;4970797;28;20204;-75
2024/01/21 08:41:54;;;;;;;14.87;7.20;;;;;;;;;;4954145;28;20191;-75
2024/01/21 08:44:19;;;;;;;14.10;8.73;;;;;;;;;;4948584;28;20220;-75
2024/01/21 08:46:44;;;;;;;12.73;7.00;;;;;;;;;;4968674;28;20173;-75
2024/01/21 08:49:09;;;;;;;15.73;8.67;;;;;;;;;;4952487;28;20228;-75
2024/01/21 08:51:35;;;;;;;12.90;7.20;;;;;;;;;;4946918;29;20187;-76
2024/01/21 08:54:00;;;;;;;11.10;6.63;;;;;;;;;;4949221;28;20259;-75
2024/01/21 08:56:26;;;;;;;10.37;5.67;;;;;;;;;;4953868;28;20211;-76
2024/01/21 08:58:51;;;;;;;7.80;5.10;;;;;;;;;;4955467;28;20230;-75
2024/01/21 09:01:17;;;;;;;5.77;4.37;;;;;;;;;;4945301;28;20193;-75
2024/01/21 09:03:42;;;;;;;4.70;3.70;;;;;;;;;;4953949;28;20185;-75
2024/01/21 09:06:08;;;;;;;3.67;2.90;;;;;;;;;;4946576;28;20188;-76
2024/01/21 09:08:34;;;;;;;4.03;2.80;;;;;;;;;;4952758;28;20177;-76
2024/01/21 09:10:59;;;;;;;4.70;3.00;;;;;;;;;;4951125;28;20601;-75
2024/01/21 09:13:24;;;;;;;5.13;3.33;;;;;;;;;;4952742;28;20185;-75
2024/01/21 09:15:49;;;;;;;6.03;4.60;;;;;;;;;;4972127;28;20255;-75
2024/01/21 09:18:14;;;;;;;6.37;5.10;;;;;;;;;;4957901;28;20177;-75
2024/01/21 09:20:40;;;;;;;7.10;5.40;;;;;;;;;;4951826;28;20287;-76
2024/01/21 09:23:05;;;;;;;10.50;8.67;;;;;;;;;;4974599;28;20185;-77
2024/01/21 09:25:30;;;;;;;5.40;4.57;;;;;;;;;;4952223;28;20185;-75
2024/01/21 09:27:55;;;;;;;4.57;3.37;;;;;;;;;;4953262;28;20183;-75
2024/01/21 09:30:21;;;;;;;4.13;3.13;;;;;;;;;;4978555;28;20177;-75
2024/01/21 09:32:46;;;;;;;4.50;3.30;;;;;;;;;;4956197;28;20279;-75
2024/01/21 09:35:11;;;;;;;6.83;3.50;;;;;;;;;;4977169;28;20181;-75
2024/01/21 09:37:36;;;;;;;4.97;2.97;;;;;;;;;;4956220;28;20204;-75
2024/01/21 09:40:03;;;;;;;5.70;3.27;;;;;;;;;;4951351;28;20200;-76
2024/01/21 09:42:28;;;;;;;6.40;3.67;;;;;;;;;;4959914;28;20173;-76
2024/01/21 09:44:54;;;;;;;5.03;3.47;;;;;;;;;;4956433;28;20176;-76
2024/01/21 09:47:19;;;;;;;4.73;3.93;;;;;;;;;;4956776;28;20173;-76
2024/01/21 09:49:45;;;;;;;7.80;6.33;;;;;;;;;;4954345;28;20192;-75
2024/01/21 09:52:10;;;;;;;5.17;4.33;;;;;;;;;;4956780;28;20177;-75
2024/01/21 09:54:35;;;;;;;4.40;4.00;;;;;;;;;;4956811;28;20328;-76
2024/01/21 09:57:01;;;;;;;7.20;5.20;;;;;;;;;;4954916;28;20228;-75
2024/01/21 09:59:27;;;;;;;6.40;5.10;;;;;;;;;;4956854;28;20200;-76
2024/01/21 10:01:52;;;;;;;5.80;5.20;;;;;;;;;;4971621;28;20180;-75
2024/01/21 10:04:20;;;;;;;7.80;5.17;;;;;;;;;;4953919;28;20178;-75
2024/01/21 10:06:45;;;;;;;6.10;4.70;;;;;;;;;;4971721;28;20180;-76
2024/01/21 10:09:13;;;;;;;6.17;4.23;;;;;;;;;;4957373;28;20211;-76
2024/01/21 10:11:39;;;;;;;5.70;3.83;;;;;;;;;;4957924;28;20184;-75
2024/01/21 10:14:04;;;;;;;5.30;3.53;;;;;;;;;;4954123;28;20177;-76
2024/01/21 10:16:29;;;;;;;5.57;4.43;;;;;;;;;;4956243;28;20213;-75
2024/01/21 10:18:54;;;;;;;5.43;3.77;;;;;;;;;;4974189;28;20187;-76
2024/01/21 10:21:20;;;;;;;6.30;4.03;;;;;;;;;;4948951;28;20196;-75
2024/01/21 10:23:48;;;;;;;4.67;3.27;;;;;;;;;;4972214;28;20192;-75
2024/01/21 10:26:13;;;;;;;4.73;3.50;;;;;;;;;;4951427;28;20184;-75
2024/01/21 10:28:39;;;;;;;4.23;3.50;;;;;;;;;;4956511;28;20173;-76
2024/01/21 10:31:06;;;;;;;13.23;7.60;;;;;;;;;;4945677;28;20310;-76
2024/01/21 10:33:31;;;;;;;7.37;4.87;;;;;;;;;;4958220;28;20188;-76
2024/01/21 10:35:57;;;;;;;5.60;4.50;;;;;;;;;;4971239;28;20209;-75
2024/01/21 10:38:23;;;;;;;5.73;4.33;;;;;;;;;;4955818;28;20216;-75
2024/01/21 10:40:49;;;;;;;7.73;4.13;;;;;;;;;;4949436;28;20204;-76
2024/01/21 10:43:14;;;;;;;8.73;6.50;;;;;;;;;;4955230;28;20169;-76
2024/01/21 10:45:44;;;;;;;11.07;7.53;;;;;;;;;;4973117;28;20208;-75
2024/01/21 10:48:10;;;;;;;10.53;7.77;;;;;;;;;;4952224;28;20228;-75
2024/01/21 10:50:36;;;;;;;8.13;5.93;;;;;;;;;;4956438;28;20185;-76
2024/01/21 10:53:01;;;;;;;10.80;5.80;;;;;;;;;;4952770;28;20473;-76
2024/01/21 10:55:27;;;;;;;6.73;4.50;;;;;;;;;;4951557;28;20176;-76
2024/01/21 10:57:52;;;;;;;7.43;4.63;;;;;;;;;;4969929;28;20188;-76
2024/01/21 11:00:17;;;;;;;6.83;4.20;;;;;;;;;;4959360;28;20199;-75
2024/01/21 11:03:03;;;;;;;6.23;4.67;;;;;;;;;;4958716;28;20181;-75
2024/01/21 11:05:28;;;;;;;5.40;3.63;;;;;;;;;;4974055;28;20176;-75
2024/01/21 11:08:00;;;;;;;3.47;2.80;;;;;;;;;;4972111;28;20185;-76
2024/01/21 11:10:26;;;;;;;4.00;2.73;;;;;;;;;;4956078;28;20180;-76
2024/01/21 11:12:56;;;;;;;2.63;2.23;;;;;;;;;;4954518;28;20192;-75
2024/01/21 11:15:27;;;;;;;2.80;2.10;;;;;;;;;;4949699;28;20244;-75
2024/01/21 11:18:06;;;;;;;2.33;1.40;;;;;;;;;;4951891;28;20237;-76
2024/01/21 11:20:32;;;;;;;2.93;1.97;;;;;;;;;;4947164;29;20218;-75
2024/01/21 11:22:58;;;;;;;1.57;1.00;;;;;;;;;;4971244;28;20190;-75
2024/01/21 11:25:33;;;;;;;2.70;1.87;;;;;;;;;;4953801;28;20185;-75
2024/01/21 11:28:05;;;;;;;2.93;2.10;;;;;;;;;;4951904;28;20173;-75
2024/01/21 11:30:32;;;;;;;4.13;2.57;;;;;;;;;;4957113;28;20190;-75
2024/01/21 11:32:59;;;;;;;18.40;10.10;;;;;;;;;;4954397;28;20219;-75
2024/01/21 11:35:26;;;;;;;9.80;7.20;;;;;;;;;;4955792;28;20197;-75
2024/01/21 11:37:53;;;;;;;6.03;3.97;;;;;;;;;;4950813;28;20285;-75
2024/01/21 11:40:18;;;;;;;4.60;3.80;;;;;;;;;;4970090;28;20198;-75
2024/01/21 11:42:45;;;;;;;6.57;4.70;;;;;;;;;;4951833;28;20177;-75
2024/01/21 11:45:11;;;;;;;8.83;5.53;;;;;;;;;;4977948;28;20172;-75
2024/01/21 11:47:37;;;;;;;4.57;3.13;;;;;;;;;;4953730;28;20189;-74
2024/01/21 11:50:02;;;;;;;4.70;3.13;;;;;;;;;;4947345;28;20208;-74
2024/01/21 11:52:27;;;;;;;3.00;2.50;;;;;;;;;;4954692;28;20186;-73
2024/01/21 11:54:53;;;;;;;4.67;2.30;;;;;;;;;;4971688;28;20231;-73
2024/01/21 11:57:19;;;;;;;3.73;2.63;;;;;;;;;;4975967;28;20187;-74
2024/01/21 11:59:44;;;;;;;2.50;1.60;;;;;;;;;;4948998;28;20246;-74
2024/01/21 12:02:10;;;;;;;3.13;1.83;;;;;;;;;;4946603;28;20215;-74
2024/01/21 12:04:38;;;;;;;3.47;1.57;;;;;;;;;;4954501;28;20282;-74
2024/01/21 12:07:04;;;;;;;3.37;2.33;;;;;;;;;;4952242;28;20282;-73
2024/01/21 12:09:29;;;;;;;2.53;2.03;;;;;;;;;;4956439;28;20262;-73
2024/01/21 12:11:54;;;;;;;2.17;1.83;;;;;;;;;;4946221;28;20179;-72
2024/01/21 12:14:20;;;;;;;2.63;1.40;;;;;;;;;;4950133;28;20175;-73
2024/01/21 12:16:49;;;;;;;5.83;3.13;;;;;;;;;;4976017;28;20188;-73
2024/01/21 12:19:15;;;;;;;3.77;3.13;;;;;;;;;;4967983;28;20174;-73
2024/01/21 12:21:42;;;;;;;2.50;1.87;;;;;;;;;;4955071;28;20221;-73
2024/01/21 12:24:08;;;;;;;2.23;1.70;;;;;;;;;;4943205;28;20172;-73
2024/01/21 12:26:33;;;;;;;2.30;1.70;;;;;;;;;;4971346;28;20178;-74
2024/01/21 12:28:59;;;;;;;2.93;1.70;;;;;;;;;;4949723;28;20204;-74
2024/01/21 12:31:25;;;;;;;1.87;1.67;;;;;;;;;;4972298;28;20208;-74
2024/01/21 12:33:51;;;;;;;8.73;2.50;;;;;;;;;;4971273;28;20180;-74
2024/01/21 12:36:16;;;;;;;2.60;1.90;;;;;;;;;;4971644;28;20259;-74
2024/01/21 12:38:42;;;;;;;4.73;3.43;;;;;;;;;;4952997;28;20180;-74
2024/01/21 12:41:07;;;;;;;11.43;3.20;;;;;;;;;;4953695;28;20200;-74
2024/01/21 12:43:32;;;;;;;3.27;2.67;;;;;;;;;;4954565;28;20172;-74
2024/01/21 12:45:57;;;;;;;7.13;3.80;;;;;;;;;;4974336;28;20245;-74
2024/01/21 12:48:24;;;;;;;2.87;2.50;;;;;;;;;;4954358;28;20173;-74
2024/01/21 12:50:49;;;;;;;1.97;1.40;;;;;;;;;;4972076;28;20176;-75
2024/01/21 12:53:14;;;;;;;2.80;1.90;;;;;;;;;;4964007;28;20230;-75
2024/01/21 12:55:39;;;;;;;1.70;1.50;;;;;;;;;;4957960;28;20181;-75
2024/01/21 12:58:05;;;;;;;2.10;1.67;;;;;;;;;;4957396;28;20189;-75
2024/01/21 13:00:30;;;;;;;2.20;1.70;;;;;;;;;;4952333;29;20205;-75
2024/01/21 13:02:55;;;;;;;4.67;1.67;;;;;;;;;;4954673;28;20214;-74
2024/01/21 13:05:20;;;;;;;6.33;2.07;;;;;;;;;;4972534;28;20175;-74
2024/01/21 13:07:46;;;;;;;3.10;1.70;;;;;;;;;;4957154;28;20177;-75
2024/01/21 13:10:11;;;;;;;2.13;1.97;;;;;;;;;;4971086;28;20200;-74
2024/01/21 13:12:36;;;;;;;4.07;3.57;;;;;;;;;;4958267;28;20185;-74
2024/01/21 13:15:02;;;;;;;5.27;4.33;;;;;;;;;;4947575;28;20246;-75
2024/01/21 13:17:27;;;;;;;5.83;4.80;;;;;;;;;;4970376;28;20173;-74
2024/01/21 13:19:52;;;;;;;11.30;4.93;;;;;;;;;;4967735;28;20201;-74
2024/01/21 13:22:17;;;;;;;8.33;5.30;;;;;;;;;;4974913;28;20196;-74
2024/01/21 13:24:43;;;;;;;7.70;4.90;;;;;;;;;;4974809;28;20188;-74
2024/01/21 13:27:11;;;;;;;15.37;5.73;;;;;;;;;;4955804;28;20176;-75
2024/01/21 13:32:20;;;;;;;9.87;6.07;;;;;;;;;;4974226;28;20219;-74
2024/01/21 13:34:46;;;;;;;4.50;2.20;;;;;;;;;;4952445;28;20189;-74
2024/01/21 13:37:12;;;;;;;4.33;2.00;;;;;;;;;;4975545;28;20177;-74
2024/01/21 13:39:38;;;;;;;1.63;1.40;;;;;;;;;;4955859;28;20185;-75
2024/01/21 13:42:04;;;;;;;4.17;2.07;;;;;;;;;;4974494;28;20185;-75
2024/01/21 13:44:30;;;;;;;2.20;1.80;;;;;;;;;;4974896;28;20243;-75
2024/01/21 13:46:57;;;;;;;6.53;1.93;;;;;;;;;;4954759;28;20183;-75
2024/01/21 13:49:23;;;;;;;4.40;1.70;;;;;;;;;;4974311;28;20212;-75
2024/01/21 13:51:48;;;;;;;2.10;1.50;;;;;;;;;;4955395;28;20594;-75
2024/01/21 13:54:13;;;;;;;3.70;1.87;;;;;;;;;;4976460;28;20184;-75
2024/01/21 13:56:38;;;;;;;2.97;1.40;;;;;;;;;;4952958;28;20185;-75
2024/01/21 13:59:04;;;;;;;2.60;1.40;;;;;;;;;;4973126;28;20180;-75
2024/01/21 14:01:29;;;;;;;2.60;1.30;;;;;;;;;;4972143;28;20200;-75
2024/01/21 14:03:55;;;;;;;2.47;1.70;;;;;;;;;;4956157;28;20589;-75
2024/01/21 14:06:20;;;;;;;11.80;6.03;;;;;;;;;;4957789;28;20192;-75
2024/01/21 14:08:46;;;;;;;7.77;6.97;;;;;;;;;;4973418;28;20195;-75
2024/01/21 14:11:11;;;;;;;6.90;3.73;;;;;;;;;;4955795;28;20188;-75
2024/01/21 14:13:38;;;;;;;2.93;2.13;;;;;;;;;;4951905;28;20192;-75
2024/01/21 14:16:03;;;;;;;1.50;1.40;;;;;;;;;;4977692;28;20248;-75
2024/01/21 14:18:28;;;;;;;6.33;1.80;;;;;;;;;;4955784;28;20195;-75
2024/01/21 14:20:53;;;;;;;2.87;2.50;;;;;;;;;;4955254;28;20232;-78
2024/01/21 14:23:19;;;;;;;5.73;3.70;;;;;;;;;;4955299;28;20211;-78
2024/01/21 14:25:44;;;;;;;4.33;2.93;;;;;;;;;;4955340;28;20239;-79
2024/01/21 14:28:09;;;;;;;6.60;2.03;;;;;;;;;;4966638;28;20191;-77
2024/01/21 14:30:35;;;;;;;3.90;1.53;;;;;;;;;;4976354;28;20184;-78
2024/01/21 14:33:01;;;;;;;2.17;1.40;;;;;;;;;;4973920;28;20192;-79
2024/01/21 14:35:26;;;;;;;1.47;1.30;;;;;;;;;;4954943;28;20287;-78